Latest Weather Observations for Ouse

IDT60801

Issued at 11:31 pm EDT Wednesday 10 February 2016 (issued every 30 minutes, with the page automatically refreshed every 10 minutes)

About weather observations | Map of weather stations | Latest weather observations for TAS | Other Formats
Station Details ID: 095048 Name: OUSE FIRE STATION Lat: -42.48 Lon: 146.71 Height: 90.0 m
Data from the previous 72 hours. | See also: Recent months at Ouse
Date/Time
EDT
Temp
°C
App
Temp
°C
Dew
Point
Rel
Hum
%
Delta-T
°C
Wind Press
QNH
hPa
Press
MSL
hPa
Rain
since 9 am
mm
Dir
 
Spd
km/h
Gust
km/h
Spd
kts
Gust
kts
10/11:30pm 14.3 13.2 10.7 79 1.9 NNE 7 9 4 5 1013.6 1013.4 0.0
10/11:00pm 15.3 13.8 10.5 73 2.5 N 9 11 5 6 1013.6 1013.4 0.0
10/10:30pm 16.5 15.5 11.0 70 3.0 NW 7 11 4 6 1013.5 1013.3 0.0
10/10:00pm 16.6 16.9 10.9 69 3.1 CALM 0 0 0 0 1013.7 1013.5 0.0
10/09:30pm 16.7 16.6 10.8 68 3.2 NNW 2 7 1 4 1013.5 1013.3 0.0
10/09:00pm 18.2 15.9 10.6 61 4.1 W 13 20 7 11 1013.0 1012.8 0.0
10/08:30pm 18.7 16.4 10.5 59 4.4 W 13 20 7 11 1013.0 1012.8 0.0
10/08:00pm 18.9 16.6 10.5 58 4.5 WNW 13 17 7 9 1012.6 1012.4 0.0
10/07:30pm 19.6 16.5 10.3 55 5.0 WSW 17 30 9 16 1012.4 1012.2 0.0
10/07:00pm 20.2 17.9 10.6 54 5.2 WSW 13 22 7 12 1012.0 1011.8 0.0
10/06:30pm 21.3 17.9 10.5 50 5.9 SW 19 26 10 14 1011.6 1011.4 0.0
10/06:00pm 22.2 18.8 10.4 47 6.5 WSW 19 26 10 14 1011.5 1011.3 0.0
10/05:30pm 22.5 19.0 10.3 46 6.7 WSW 19 30 10 16 1011.5 1011.3 0.0
10/05:00pm 21.4 17.1 9.3 46 6.5 WSW 22 33 12 18 1011.3 1011.1 0.0
10/04:30pm 22.6 18.0 9.7 44 7.0 SW 24 33 13 18 1011.2 1011.0 0.0
10/04:00pm 22.6 17.8 9.0 42 7.3 SW 24 32 13 17 1011.1 1010.9 0.0
10/03:30pm 24.1 19.9 9.7 40 7.9 WSW 22 35 12 19 1011.2 1011.0 0.0
10/03:00pm 24.7 20.1 9.8 39 8.2 WSW 24 39 13 21 1011.3 1011.1 0.0
10/02:30pm 23.8 19.5 9.4 40 7.8 WSW 22 33 12 18 1011.7 1011.5 0.0
10/02:00pm 24.0 20.3 10.3 42 7.6 WSW 20 35 11 19 1011.8 1011.6 0.0
10/01:30pm 23.5 19.9 9.9 42 7.5 W 19 32 10 17 1011.8 1011.6 0.0
10/01:00pm 23.1 20.6 11.2 47 6.7 WSW 15 24 8 13 1011.9 1011.7 0.0
10/12:30pm 22.4 19.6 9.9 45 6.8 WSW 15 19 8 10 1012.4 1012.2 0.0
10/12:00pm 22.2 19.7 9.7 45 6.8 SW 13 20 7 11 1012.8 1012.6 0.0
10/11:30am 20.4 17.1 9.6 50 5.8 NW 17 24 9 13 1012.8 1012.6 0.0
10/11:00am 21.2 17.6 10.7 51 5.8 WNW 20 32 11 17 1013.1 1012.9 0.0
10/10:30am 19.3 16.1 10.0 55 5.0 NW 17 26 9 14 1013.3 1013.1 0.0
10/10:00am 18.5 15.6 9.6 56 4.7 NW 15 22 8 12 1013.4 1013.2 0.0
10/09:30am 18.3 15.3 9.4 56 4.7 N 15 22 8 12 1013.7 1013.5 0.0
10/09:00am 16.6 16.0 11.7 73 2.7 ENE 6 7 3 4 1014.0 1013.9 0.0
10/08:30am 14.0 13.2 11.0 82 1.6 SSE 6 9 3 5 1014.1 1014.0 0.0
10/08:00am 12.8 11.8 10.3 85 1.3 ESE 6 9 3 5 1013.9 1013.8 0.0
10/07:30am 11.9 11.7 10.5 91 0.7 ESE 2 7 1 4 1013.7 1013.5 0.0
10/07:00am 11.2 11.3 10.0 92 0.6 CALM 0 0 0 0 1013.6 1013.4 0.0
10/06:30am 11.2 11.3 10.1 93 0.6 CALM 0 0 0 0 1013.4 1013.2 0.0
10/06:00am 11.2 11.3 10.1 93 0.6 CALM 0 0 0 0 1013.5 1013.3 0.0
10/05:30am 11.3 11.4 10.0 92 0.7 CALM 0 0 0 0 1013.2 1013.0 0.0
10/05:00am 11.3 10.9 9.7 90 0.8 SSW 2 7 1 4 1013.4 1013.2 0.0
10/04:30am 11.7 10.6 9.9 89 0.9 SE 6 7 3 4 1013.4 1013.2 0.0
10/04:00am 11.9 11.2 10.1 89 0.9 S 4 9 2 5 1013.2 1013.0 0.0
10/03:30am 12.5 11.8 9.9 84 1.3 NNW 4 7 2 4 1013.2 1013.0 0.0
10/03:00am 12.7 11.0 9.9 83 1.4 NNE 9 11 5 6 1013.3 1013.1 0.0
10/02:30am 13.4 13.0 9.8 79 1.9 NW 2 6 1 3 1013.6 1013.4 0.0
10/02:00am 14.5 13.4 10.7 78 2.0 N 7 9 4 5 1013.9 1013.8 0.0
10/01:30am 15.8 14.4 11.0 73 2.6 NNW 9 13 5 7 1014.2 1014.1 0.0
10/01:00am 16.3 14.5 11.0 71 2.8 N 11 15 6 8 1014.4 1014.3 0.0
10/12:30am 16.8 14.7 11.1 69 3.1 NNW 13 17 7 9 1014.7 1014.6 0.0
10/12:00am 17.0 15.5 10.6 66 3.4 WSW 9 13 5 7 1014.8 1014.7 0.0
 
Date/Time
EDT
Temp
°C
App
Temp
°C
Dew
Point
Rel
Hum
%
Delta-T
°C
Wind Press
QNH
hPa
Press
MSL
hPa
Rain
since 9 am
mm
Dir
 
Spd
km/h
Gust
km/h
Spd
kts
Gust
kts
09/11:30pm 17.2 15.0 10.8 66 3.4 N 13 17 7 9 1015.0 1014.9 0.0
09/11:00pm 17.7 16.8 10.8 64 3.7 N 6 9 3 5 1015.0 1014.9 0.0
09/10:30pm 18.7 18.4 11.3 62 4.1 N 4 7 2 4 1015.0 1014.9 0.0
09/10:00pm 20.1 19.0 10.5 54 5.2 N 7 13 4 7 1015.0 1014.9 0.0
09/09:30pm 21.2 18.1 10.4 50 5.9 W 17 30 9 16 1014.7 1014.6 0.0
09/09:00pm 22.3 19.8 9.8 45 6.8 W 13 20 7 11 1014.3 1014.2 0.0
09/08:30pm 23.7 20.0 6.5 33 8.9 WSW 15 20 8 11 1013.8 1013.7 0.0
09/08:00pm 25.1 21.0 6.3 30 9.8 WSW 17 24 9 13 1013.7 1013.5 0.0
09/07:30pm 26.3 21.9 6.4 28 10.4 SW 19 28 10 15 1013.6 1013.4 0.0
09/07:00pm 27.0 22.5 5.9 26 11.0 SW 19 30 10 16 1013.6 1013.4 0.0
09/06:30pm 28.3 24.0 7.0 26 11.4 WSW 19 26 10 14 1013.4 1013.2 0.0
09/06:00pm 28.4 23.8 6.5 25 11.6 WSW 20 32 11 17 1013.5 1013.3 0.0
09/05:30pm 29.4 24.5 6.7 24 12.2 W 22 33 12 18 1013.7 1013.5 0.0
09/05:00pm 29.7 23.9 6.4 23 12.4 WSW 26 39 14 21 1014.1 1014.0 0.0
09/04:30pm 30.1 25.2 6.7 23 12.6 WSW 22 32 12 17 1014.3 1014.2 0.0
09/04:00pm 30.1 25.4 7.9 25 12.2 WSW 22 39 12 21 1014.6 1014.5 0.0
09/03:30pm 30.4 25.0 6.3 22 12.9 SW 24 44 13 24 1014.9 1014.8 0.0
09/03:00pm 30.1 24.3 6.1 22 12.8 WSW 26 39 14 21 1015.5 1015.4 0.0
09/02:30pm 29.8 24.3 5.8 22 12.7 SW 24 37 13 20 1015.9 1015.8 0.0
09/02:00pm 27.9 24.4 5.5 24 11.6 W 13 28 7 15 1016.4 1016.2 0.0
09/01:30pm 27.5 24.6 6.3 26 11.2 W 11 17 6 9 1016.9 1016.7 0.0
09/01:00pm 26.7 23.9 8.6 32 9.9 SSE 13 20 7 11 1017.5 1017.3 0.0
09/12:30pm 25.5 23.7 9.3 36 8.9 S 9 15 5 8 1018.1 1017.9 0.0
09/12:00pm 23.5 21.4 8.4 38 8.0 E 9 17 5 9 1018.8 1018.6 0.0
09/11:30am 23.2 21.2 8.5 39 7.8 SSW 9 15 5 8 1019.4 1019.2 0.0
09/11:00am 21.6 20.1 9.2 45 6.6 SSE 7 13 4 7 1019.9 1019.7 0.0
09/10:30am 21.0 19.5 8.3 44 6.7 E 6 11 3 6 1020.4 1020.2 0.0
09/10:00am 20.2 17.8 8.8 48 6.0 NE 11 17 6 9 1020.8 1020.6 0.0
09/09:30am 19.3 18.0 9.2 52 5.3 NNE 6 17 3 9 1021.1 1020.9 0.0
09/09:00am 18.1 16.8 10.0 59 4.3 NE 7 11 4 6 1021.4 1021.2 0.0
09/08:30am 16.9 16.5 9.8 63 3.7 ENE 2 9 1 5 1021.7 1021.5 0.0
09/08:00am 15.7 14.5 9.4 66 3.3 ENE 6 7 3 4 1021.7 1021.5 0.0
09/07:30am 13.9 12.5 8.9 72 2.5 NE 6 7 3 4 1021.6 1021.4 0.0
09/07:00am 12.5 10.8 8.4 76 2.0 NNW 7 13 4 7 1021.7 1021.5 0.0
09/06:30am 12.5 10.0 8.0 74 2.2 N 11 17 6 9 1021.5 1021.3 0.0
09/06:00am 12.2 10.0 7.9 75 2.1 N 9 15 5 8 1021.2 1021.0 0.0
09/05:30am 11.9 9.4 8.2 78 1.8 N 11 17 6 9 1020.8 1020.6 0.0
09/05:00am 11.9 9.8 8.2 78 1.8 N 9 15 5 8 1020.9 1020.7 0.0
09/04:30am 12.3 10.2 8.4 77 1.9 NNW 9 17 5 9 1020.9 1020.7 0.0
09/04:00am 12.0 9.6 8.7 80 1.6 N 11 15 6 8 1021.0 1020.8 0.0
09/03:30am 12.9 11.2 8.4 74 2.2 NNW 7 9 4 5 1021.1 1020.9 0.0
09/03:00am 14.7 12.8 8.9 68 3.0 WNW 9 15 5 8 1021.1 1020.9 0.0
09/02:30am 15.5 12.5 9.2 66 3.3 WNW 15 20 8 11 1021.2 1021.0 0.0
09/02:00am 15.6 13.3 9.1 65 3.3 NNW 11 15 6 8 1021.4 1021.2 0.0
09/01:30am 16.8 13.8 9.2 61 4.0 NW 15 20 8 11 1021.7 1021.5 0.0
09/01:00am 16.8 13.8 9.2 61 3.9 NW 15 20 8 11 1021.8 1021.6 0.0
09/12:30am 16.9 14.3 9.3 61 4.0 NW 13 20 7 11 1021.8 1021.6 0.0
09/12:00am 16.9 13.9 9.3 61 4.0 NW 15 20 8 11 1021.9 1021.7 0.0
 
Date/Time
EDT
Temp
°C
App
Temp
°C
Dew
Point
Rel
Hum
%
Delta-T
°C
Wind Press
QNH
hPa
Press
MSL
hPa
Rain
since 9 am
mm
Dir
 
Spd
km/h
Gust
km/h
Spd
kts
Gust
kts
08/11:30pm 16.1 13.4 8.8 62 3.8 NNW 13 17 7 9 1022.0 1021.8 0.0
08/11:00pm 15.3 13.8 9.0 66 3.2 N 7 11 4 6 1022.1 1021.9 0.0
08/10:30pm 16.8 15.8 9.0 60 4.0 NW 4 9 2 5 1022.0 1021.8 0.0
08/10:00pm 17.6 14.7 8.2 54 4.8 W 13 22 7 12 1021.9 1021.7 0.0
08/09:30pm 18.1 13.9 8.1 52 5.1 WSW 20 32 11 17 1021.5 1021.3 0.0
08/09:00pm 18.6 14.6 8.3 51 5.3 SW 19 32 10 17 1021.2 1021.0 0.0
08/08:30pm 19.4 15.5 8.7 50 5.6 WSW 19 32 10 17 1020.7 1020.5 0.0
08/08:00pm 20.4 16.3 8.7 47 6.1 WSW 20 28 11 15 1020.1 1019.9 0.0
08/07:30pm 21.7 17.7 8.9 44 6.8 WSW 20 30 11 16 1019.5 1019.3 0.0
08/07:00pm 23.1 18.3 8.8 40 7.7 WSW 24 33 13 18 1019.2 1019.0 0.0
08/06:30pm 24.1 20.2 8.5 37 8.4 WSW 19 26 10 14 1018.8 1018.6 0.0
08/06:00pm 24.9 19.2 8.4 35 8.9 SW 28 39 15 21 1018.5 1018.3 0.0
08/05:30pm 25.8 19.8 8.8 34 9.3 SW 30 43 16 23 1018.0 1017.8 0.0
08/05:00pm 26.8 21.3 9.2 33 9.7 SW 28 41 15 22 1017.7 1017.5 0.0
08/04:30pm 27.2 23.5 10.0 34 9.6 SW 20 39 11 21 1017.4 1017.2 0.0
08/04:00pm 26.8 23.3 10.1 35 9.3 SW 19 28 10 15 1017.4 1017.2 0.0
08/03:30pm 27.2 25.1 11.3 37 9.1 W 13 26 7 14 1017.5 1017.3 0.0
08/03:00pm 26.8 24.6 10.9 37 9.0 W 13 22 7 12 1017.5 1017.3 0.0
08/02:30pm 25.6 22.3 9.4 36 8.9 WSW 17 32 9 17 1017.7 1017.5 0.0
08/02:00pm 26.3 24.0 11.6 40 8.4 WNW 15 28 8 15 1017.9 1017.7 0.0
08/01:30pm 25.3 21.6 10.0 38 8.5 WNW 20 32 11 17 1018.2 1018.0 0.0
08/01:00pm 24.7 21.4 9.4 38 8.4 WNW 17 35 9 19 1018.3 1018.1 0.0
08/12:30pm 23.9 20.0 9.5 40 7.9 NW 20 30 11 16 1018.5 1018.3 0.0
08/12:00pm 23.9 20.2 9.5 40 7.8 W 19 30 10 16 1018.9 1018.7 0.0
08/11:30am 23.2 19.5 9.6 42 7.4 WSW 19 26 10 14 1019.0 1018.8 0.0
08/11:00am 23.3 19.6 10.0 43 7.3 WSW 20 32 11 17 1019.1 1018.9 0.0
08/10:30am 22.3 19.0 10.8 48 6.4 WSW 19 30 10 16 1019.0 1018.8 0.0
08/10:00am 21.6 18.6 10.7 50 6.0 WSW 17 28 9 15 1019.0 1018.8 0.0
08/09:30am 20.4 18.3 11.1 55 5.1 NW 13 20 7 11 1019.2 1019.0 0.0
08/09:00am 20.1 18.2 10.5 54 5.2 WNW 11 20 6 11 1019.6 1019.4 0.0
08/08:30am 19.5 17.4 11.3 59 4.5 WNW 13 20 7 11 1019.1 1018.9 0.0
08/08:00am 18.5 17.0 12.0 66 3.6 NW 11 15 6 8 1018.9 1018.7 0.0
08/07:30am 16.5 16.1 14.0 85 1.4 NNW 9 17 5 9 1018.5 1018.3 0.0
08/07:00am 13.6 13.2 13.1 97 0.3 NW 7 11 4 6 1018.2 1018.0 0.0
08/06:30am 12.9 12.2 12.1 95 0.4 NNW 7 9 4 5 1017.8 1017.6 0.0
08/06:00am 13.4 12.9 12.8 96 0.3 NNE 7 11 4 6 1017.6 1017.4 0.0
08/05:30am 13.5 12.7 12.9 96 0.3 N 9 13 5 7 1017.4 1017.2 0.0
08/05:00am 13.9 14.8 12.8 93 0.6 CALM 0 0 0 0 1017.2 1017.0 0.0
08/04:30am 14.5 15.5 13.2 92 0.7 CALM 0 0 0 0 1017.3 1017.1 0.0
08/04:00am 15.0 16.1 13.4 90 0.9 CALM 0 0 0 0 1017.2 1017.0 0.0
08/03:30am 16.0 17.2 13.8 87 1.2 CALM 0 0 0 0 1017.2 1017.0 0.0
08/03:00am 17.1 17.8 14.6 85 1.4 SW 4 6 2 3 1017.3 1017.1 0.0
08/02:30am 17.9 19.6 15.3 85 1.5 CALM 0 0 0 0 1017.4 1017.2 0.0
08/02:00am 18.0 19.7 15.3 84 1.6 CALM 0 4 0 2 1017.7 1017.5 0.0
08/01:30am 19.0 19.3 15.1 78 2.3 SSW 7 9 4 5 1017.7 1017.5 0.0
08/01:00am 19.2 19.6 15.3 78 2.3 S 7 11 4 6 1017.8 1017.6 0.0
08/12:30am 19.5 19.9 15.2 76 2.5 SSE 7 9 4 5 1017.7 1017.5 0.0
08/12:00am 20.0 20.0 15.2 74 2.8 SSE 9 11 5 6 1017.9 1017.7 0.0

Other Formats:

Comma delimited format used in spreadsheet applications
http://www.bom.gov.au/fwo/IDT60801/IDT60801.94957.axf

JavaScript Object Notation format (JSON) in row-major order
http://www.bom.gov.au/fwo/IDT60801/IDT60801.94957.json